Time;durP1;ratioP1;P1;durP2;ratioP2;P2;SDS_P1;SDS_P2;PMS_P1;PMS_P2;Temp;Humidity;BMP_temperature;BMP_pressure;BME280_temperature;BME280_humidity;BME280_pressure;Samples;Min_cycle;Max_cycle;Signal;HPM_P1;HPM_P2
2023/02/18 00:00:14;;;;;;;19.52;13.27;;;11.80;99.90;;;;;;5076251;28;20024;-90
2023/02/18 00:02:39;;;;;;;19.17;14.75;;;11.90;99.90;;;;;;5076118;28;20473;-90
2023/02/18 00:05:05;;;;;;;19.10;15.00;;;12.00;99.90;;;;;;5076183;28;20100;-90
2023/02/18 00:07:35;;;;;;;16.65;13.80;;;12.00;99.90;;;;;;5076205;28;20036;-90
2023/02/18 00:10:01;;;;;;;16.13;13.70;;;12.10;99.90;;;;;;5075985;28;20377;-90
2023/02/18 00:12:28;;;;;;;19.45;14.07;;;12.20;99.90;;;;;;5075733;28;20025;-90
2023/02/18 00:14:54;;;;;;;18.40;14.10;;;12.20;99.90;;;;;;5075975;28;20363;-90
2023/02/18 00:17:20;;;;;;;17.58;14.10;;;12.20;99.90;;;;;;5076045;28;20070;-90
2023/02/18 00:19:45;;;;;;;20.55;15.75;;;12.20;99.90;;;;;;5076006;28;20024;-90
2023/02/18 00:22:11;;;;;;;19.42;15.38;;;12.10;99.90;;;;;;5075923;28;20032;-90
2023/02/18 00:24:37;;;;;;;18.23;14.63;;;12.00;99.90;;;;;;5075570;28;20462;-90
2023/02/18 00:27:03;;;;;;;26.67;19.05;;;12.00;99.90;;;;;;5074792;28;20028;-90
2023/02/18 00:29:29;;;;;;;23.20;18.48;;;12.10;99.90;;;;;;5076254;28;20024;-91
2023/02/18 00:31:54;;;;;;;27.02;18.25;;;12.10;99.90;;;;;;5082743;28;20020;-90
2023/02/18 00:34:20;;;;;;;16.83;14.07;;;12.00;99.90;;;;;;5094561;28;20080;-90
2023/02/18 00:36:46;;;;;;;18.85;15.30;;;11.90;99.90;;;;;;5096137;28;20039;-90
2023/02/18 00:39:12;;;;;;;18.50;12.43;;;11.80;99.90;;;;;;5094793;28;20028;-90
2023/02/18 00:41:38;;;;;;;17.15;12.68;;;11.70;99.90;;;;;;5094114;28;20085;-90
2023/02/18 00:44:04;;;;;;;14.25;11.52;;;11.70;99.90;;;;;;5095962;28;20049;-90
2023/02/18 00:46:30;;;;;;;15.70;11.95;;;11.70;99.90;;;;;;5095606;28;20032;-90
2023/02/18 00:48:56;;;;;;;14.38;11.95;;;11.80;99.90;;;;;;5094366;28;20024;-91
2023/02/18 00:51:22;;;;;;;16.90;12.55;;;11.80;99.90;;;;;;5095592;28;20028;-90
2023/02/18 00:53:48;;;;;;;15.57;11.32;;;11.90;99.90;;;;;;5095792;28;20056;-90
2023/02/18 00:56:14;;;;;;;15.95;12.15;;;11.80;99.90;;;;;;5077317;28;20466;-89
2023/02/18 00:58:39;;;;;;;17.25;11.75;;;11.80;99.90;;;;;;5075185;28;20020;-90
2023/02/18 01:01:07;;;;;;;17.23;12.48;;;11.80;99.90;;;;;;5074094;28;20063;-90
2023/02/18 01:03:32;;;;;;;14.85;12.10;;;11.90;99.90;;;;;;5075336;28;20028;-90
2023/02/18 01:05:58;;;;;;;15.70;12.02;;;12.00;99.90;;;;;;5074017;28;20363;-90
2023/02/18 01:08:24;;;;;;;16.42;12.35;;;12.00;99.90;;;;;;5075020;28;20077;-91
2023/02/18 01:10:53;;;;;;;14.93;12.25;;;11.90;99.90;;;;;;5074871;28;20059;-90
2023/02/18 01:13:19;;;;;;;18.30;11.65;;;11.90;99.90;;;;;;5075098;28;20032;-90
2023/02/18 01:15:45;;;;;;;16.60;12.98;;;11.90;99.90;;;;;;5075079;28;20033;-90
2023/02/18 01:18:12;;;;;;;18.40;14.25;;;12.00;99.90;;;;;;5075118;28;20393;-89
2023/02/18 01:20:40;;;;;;;21.08;13.63;;;11.90;99.90;;;;;;5075046;28;20431;-90
2023/02/18 01:23:05;;;;;;;16.20;13.35;;;11.90;99.90;;;;;;5074927;28;20032;-90
2023/02/18 01:25:31;;;;;;;17.20;13.32;;;11.80;99.90;;;;;;5074582;28;20020;-90
2023/02/18 01:27:57;;;;;;;17.20;13.10;;;12.00;99.90;;;;;;5074969;28;20016;-90
2023/02/18 01:30:23;;;;;;;15.27;12.70;;;11.90;99.90;;;;;;5073548;28;20033;-91
2023/02/18 01:32:48;;;;;;;15.85;11.88;;;11.80;99.90;;;;;;5074902;28;20024;-91
2023/02/18 01:35:16;;;;;;;16.42;12.02;;;11.70;99.90;;;;;;5074799;28;20068;-90
2023/02/18 01:37:42;;;;;;;14.00;11.55;;;11.70;99.90;;;;;;5073649;28;20473;-90
2023/02/18 01:40:11;;;;;;;15.50;11.88;;;11.70;99.90;;;;;;5074621;28;20028;-90
2023/02/18 01:42:37;;;;;;;16.50;11.98;;;11.80;99.90;;;;;;5074756;28;20091;-90
2023/02/18 01:45:37;;;;;;;15.32;12.02;;;11.90;99.90;;;;;;5074541;28;20064;-90
2023/02/18 01:48:30;;;;;;;17.00;11.95;;;11.90;99.90;;;;;;5074510;28;20066;-90
2023/02/18 01:51:01;;;;;;;15.48;12.20;;;11.80;99.90;;;;;;5074258;28;20037;-90
2023/02/18 01:53:34;;;;;;;14.65;12.02;;;11.90;99.90;;;;;;5072777;28;20029;-90
2023/02/18 01:56:04;;;;;;;18.35;12.23;;;12.00;99.90;;;;;;5074276;28;20397;-90
2023/02/18 01:58:30;;;;;;;15.00;12.48;;;12.00;99.90;;;;;;5074162;28;20115;-90
2023/02/18 02:00:55;;;;;;;17.92;12.02;;;12.00;99.90;;;;;;5074330;28;20439;-90
2023/02/18 02:03:21;;;;;;;18.63;12.25;;;11.90;99.90;;;;;;5073620;28;20024;-90
2023/02/18 02:05:47;;;;;;;19.63;11.90;;;11.90;99.90;;;;;;5074167;28;20024;-90
2023/02/18 02:08:13;;;;;;;16.52;12.32;;;12.00;99.90;;;;;;5073840;28;20400;-89
2023/02/18 02:10:56;;;;;;;17.30;12.38;;;11.80;99.90;;;;;;5073913;28;20035;-88
2023/02/18 02:13:58;;;;;;;13.90;11.70;;;11.90;99.90;;;;;;5072567;28;20033;-89
2023/02/18 02:16:36;;;;;;;18.10;12.48;;;11.90;99.90;;;;;;5074044;28;20067;-88
2023/02/18 02:19:54;;;;;;;18.55;12.48;;;12.10;99.90;;;;;;5072675;28;20461;-87
2023/02/18 02:22:50;;;;;;;14.50;11.48;;;12.00;99.90;;;;;;5014771;28;20033;-87
2023/02/18 02:25:21;;;;;;;16.58;11.32;;;12.10;99.90;;;;;;5031899;28;20033;-90
2023/02/18 02:28:05;;;;;;;16.05;12.63;;;12.10;99.90;;;;;;5031759;28;20034;-89
2023/02/18 02:30:52;;;;;;;14.82;12.23;;;12.00;99.90;;;;;;5031783;28;20037;-90
2023/02/18 02:33:20;;;;;;;15.27;12.15;;;11.90;99.90;;;;;;5031572;28;20034;-90
2023/02/18 02:36:13;;;;;;;17.58;12.52;;;12.00;99.90;;;;;;5031824;28;20045;-90
2023/02/18 02:38:47;;;;;;;16.67;12.65;;;11.90;99.90;;;;;;5027887;28;20029;-90
2023/02/18 02:41:46;;;;;;;16.50;11.98;;;11.80;99.90;;;;;;5031400;28;20061;-90
2023/02/18 02:44:33;;;;;;;17.30;11.20;;;11.70;99.90;;;;;;5015016;28;20025;-90
2023/02/18 02:47:10;;;;;;;14.80;11.45;;;11.70;99.90;;;;;;5031503;28;20120;-90
2023/02/18 02:49:42;;;;;;;16.85;12.15;;;11.80;99.90;;;;;;5031499;28;20107;-90
2023/02/18 02:52:18;;;;;;;16.05;11.35;;;11.80;99.90;;;;;;5031550;28;20103;-90
2023/02/18 02:54:44;;;;;;;16.50;12.27;;;11.90;99.90;;;;;;5031620;28;20460;-90
2023/02/18 02:57:15;;;;;;;16.02;12.20;;;11.90;99.90;;;;;;5031602;28;20026;-90
2023/02/18 02:59:46;;;;;;;15.23;12.15;;;11.80;99.90;;;;;;5058047;28;20066;-90
2023/02/18 03:02:54;;;;;;;16.60;11.32;;;11.70;99.90;;;;;;5071961;28;20020;-90
2023/02/18 03:05:22;;;;;;;15.02;11.45;;;11.80;99.90;;;;;;5071625;28;20433;-90
2023/02/18 03:08:03;;;;;;;16.13;11.55;;;11.80;99.90;;;;;;5073226;28;20035;-90
2023/02/18 03:10:49;;;;;;;16.90;11.48;;;11.70;99.90;;;;;;5073164;28;20048;-90
2023/02/18 03:13:23;;;;;;;14.38;11.27;;;11.80;99.90;;;;;;5067819;28;20409;-90
2023/02/18 03:16:09;;;;;;;15.20;11.80;;;11.80;99.90;;;;;;5072107;28;20089;-91
2023/02/18 03:18:49;;;;;;;14.88;11.57;;;11.90;99.90;;;;;;5072956;28;20020;-91
2023/02/18 03:21:40;;;;;;;16.67;12.05;;;11.90;99.90;;;;;;5071535;28;20025;-90
2023/02/18 03:24:44;;;;;;;14.48;12.15;;;12.00;99.90;;;;;;5073024;28;20416;-90
2023/02/18 03:27:27;;;;;;;15.10;12.82;;;12.00;99.90;;;;;;5072632;28;20040;-90
2023/02/18 03:30:02;;;;;;;15.88;12.10;;;12.00;99.90;;;;;;5072615;28;20070;-90
2023/02/18 03:32:30;;;;;;;15.15;11.25;;;12.00;99.90;;;;;;5072833;28;20557;-90
2023/02/18 03:35:02;;;;;;;17.25;12.48;;;12.00;99.90;;;;;;5072456;28;20036;-89
2023/02/18 03:37:31;;;;;;;15.27;12.32;;;12.10;99.90;;;;;;5072866;28;20030;-90
2023/02/18 03:39:59;;;;;;;17.70;12.77;;;12.00;99.90;;;;;;5071509;28;20115;-91
2023/02/18 03:42:29;;;;;;;16.65;13.05;;;11.90;99.90;;;;;;5072364;28;20044;-90
2023/02/18 03:44:55;;;;;;;16.38;13.00;;;12.00;99.90;;;;;;5072815;28;20033;-90
2023/02/18 03:47:20;;;;;;;16.52;12.85;;;11.90;99.90;;;;;;5071380;28;20110;-90
2023/02/18 03:49:46;;;;;;;16.50;13.10;;;11.80;99.90;;;;;;5071088;28;20461;-90
2023/02/18 03:52:12;;;;;;;16.33;11.77;;;11.60;99.90;;;;;;5072698;28;20058;-90
2023/02/18 03:54:37;;;;;;;16.35;12.63;;;11.50;99.90;;;;;;5069513;28;20116;-90
2023/02/18 03:57:03;;;;;;;16.65;12.32;;;11.60;99.90;;;;;;5052796;28;20033;-90
2023/02/18 03:59:29;;;;;;;18.17;12.25;;;11.70;99.90;;;;;;5052703;28;20048;-90
2023/02/18 04:01:54;;;;;;;14.68;12.25;;;11.80;99.90;;;;;;5053183;28;20482;-90
2023/02/18 04:04:20;;;;;;;16.42;12.13;;;11.70;99.90;;;;;;5052832;28;20014;-90
2023/02/18 04:06:45;;;;;;;13.45;12.05;;;11.80;99.90;;;;;;5052981;28;20029;-88
2023/02/18 04:09:11;;;;;;;13.10;11.55;;;11.80;99.90;;;;;;5052651;28;20029;-88
2023/02/18 04:11:38;;;;;;;14.00;11.93;;;11.80;99.90;;;;;;5052419;28;20036;-87
2023/02/18 04:14:05;;;;;;;14.18;11.73;;;11.80;99.90;;;;;;5051983;28;20025;-87
2023/02/18 04:16:31;;;;;;;13.40;11.45;;;11.80;99.90;;;;;;5052425;28;20149;-87
2023/02/18 04:18:56;;;;;;;15.10;12.32;;;11.80;99.90;;;;;;5052082;28;20036;-87
2023/02/18 04:21:22;;;;;;;16.58;13.10;;;11.90;99.90;;;;;;5052351;28;20021;-87
2023/02/18 04:23:48;;;;;;;15.85;13.38;;;11.80;99.90;;;;;;5051039;28;21050;-88
2023/02/18 04:26:13;;;;;;;16.38;14.02;;;11.70;99.90;;;;;;5085300;28;20025;-90
2023/02/18 04:28:39;;;;;;;16.55;14.18;;;11.70;99.90;;;;;;5056029;28;20039;-90
2023/02/18 04:31:04;;;;;;;16.10;13.57;;;11.70;99.90;;;;;;5056043;28;20485;-90
2023/02/18 04:33:30;;;;;;;17.63;13.98;;;11.70;99.90;;;;;;5075025;28;20050;-90
2023/02/18 04:35:56;;;;;;;17.45;13.38;;;11.70;99.90;;;;;;5074400;28;20458;-90
2023/02/18 04:38:22;;;;;;;16.17;13.43;;;11.70;99.90;;;;;;5076059;28;20020;-90
2023/02/18 04:40:47;;;;;;;16.90;14.40;;;11.80;99.90;;;;;;5075707;28;20131;-90
2023/02/18 04:43:13;;;;;;;16.58;14.05;;;11.70;99.90;;;;;;5075725;28;20021;-90
2023/02/18 04:45:39;;;;;;;18.92;13.63;;;11.70;99.90;;;;;;5075678;28;20024;-90
2023/02/18 04:48:04;;;;;;;15.98;13.35;;;11.70;99.90;;;;;;5075207;28;20424;-90
2023/02/18 04:50:30;;;;;;;16.77;13.10;;;11.60;99.90;;;;;;5075544;28;20162;-90
2023/02/18 04:52:56;;;;;;;15.45;12.52;;;11.60;99.90;;;;;;5075691;28;20016;-90
2023/02/18 04:55:21;;;;;;;17.15;13.88;;;11.60;99.90;;;;;;5075418;28;20041;-90
2023/02/18 04:57:47;;;;;;;15.07;12.07;;;11.60;99.90;;;;;;5075606;28;20017;-90
2023/02/18 05:00:17;;;;;;;13.70;10.65;;;11.50;99.90;;;;;;5075242;28;20029;-90
2023/02/18 05:02:43;;;;;;;15.32;11.77;;;11.50;99.90;;;;;;5075121;28;20025;-90
2023/02/18 05:05:10;;;;;;;13.63;11.60;;;11.50;99.90;;;;;;5075448;28;20036;-89
2023/02/18 05:07:36;;;;;;;13.35;11.15;;;11.60;99.90;;;;;;5075416;28;20020;-90
2023/02/18 05:10:01;;;;;;;12.85;11.50;;;11.40;99.90;;;;;;5075273;28;20025;-90
2023/02/18 05:12:27;;;;;;;14.52;11.80;;;11.30;99.90;;;;;;5075304;28;20029;-90
2023/02/18 05:14:52;;;;;;;15.02;12.63;;;11.40;99.90;;;;;;5075476;28;20115;-91
2023/02/18 05:17:18;;;;;;;15.48;13.07;;;11.40;99.90;;;;;;5075326;28;20382;-90
2023/02/18 05:19:44;;;;;;;16.70;12.82;;;11.40;99.90;;;;;;5075653;28;20369;-90
2023/02/18 05:22:09;;;;;;;15.98;12.05;;;11.40;99.90;;;;;;5075179;28;20028;-90
2023/02/18 05:24:35;;;;;;;12.50;11.20;;;11.40;99.90;;;;;;5075060;28;20021;-90
2023/02/18 05:27:00;;;;;;;12.48;10.95;;;11.40;99.90;;;;;;5074886;28;20035;-90
2023/02/18 05:29:26;;;;;;;13.77;11.10;;;11.50;99.90;;;;;;5075026;28;20024;-90
2023/02/18 05:31:52;;;;;;;12.95;11.07;;;11.60;99.90;;;;;;5074348;28;20032;-90
2023/02/18 05:34:17;;;;;;;12.57;10.60;;;11.50;99.90;;;;;;5074734;28;20486;-90
2023/02/18 05:36:43;;;;;;;13.30;10.70;;;11.50;99.90;;;;;;5074700;28;20028;-91
2023/02/18 05:39:09;;;;;;;11.75;10.55;;;11.60;99.90;;;;;;5073729;28;20381;-90
2023/02/18 05:41:34;;;;;;;13.13;11.40;;;11.60;99.90;;;;;;5074447;28;20504;-90
2023/02/18 05:46:44;;;;;;;13.13;10.63;;;11.50;99.90;;;;;;5074251;28;20047;-90
2023/02/18 05:49:10;;;;;;;14.18;10.98;;;11.60;99.90;;;;;;5074270;28;20481;-90
2023/02/18 05:51:36;;;;;;;13.07;10.70;;;11.60;99.90;;;;;;5074568;28;20052;-90
2023/02/18 05:54:02;;;;;;;13.32;10.70;;;11.60;99.90;;;;;;5074505;28;20102;-90
2023/02/18 05:56:27;;;;;;;13.77;11.15;;;11.60;99.90;;;;;;5074063;28;20563;-90
2023/02/18 05:58:53;;;;;;;11.90;10.32;;;11.70;99.90;;;;;;5073132;28;20016;-90
2023/02/18 06:01:19;;;;;;;12.25;10.55;;;11.60;99.90;;;;;;5073829;28;20029;-90
2023/02/18 06:03:44;;;;;;;13.30;11.13;;;11.60;99.90;;;;;;5072957;28;20025;-90
2023/02/18 06:06:10;;;;;;;12.90;10.43;;;11.50;99.90;;;;;;5074211;28;20592;-90
2023/02/18 06:08:36;;;;;;;15.82;11.52;;;11.50;99.90;;;;;;5072918;28;20029;-90
2023/02/18 06:11:02;;;;;;;14.40;11.48;;;11.50;99.90;;;;;;5074151;28;20099;-90
2023/02/18 06:13:27;;;;;;;14.10;11.55;;;11.50;99.90;;;;;;5073988;28;20067;-90
2023/02/18 06:15:53;;;;;;;14.57;11.00;;;11.40;99.90;;;;;;5073744;28;20067;-90
2023/02/18 06:18:20;;;;;;;11.45;10.20;;;11.30;99.90;;;;;;5073877;28;20017;-90
2023/02/18 06:20:48;;;;;;;13.13;11.50;;;11.40;99.90;;;;;;5073734;28;20028;-90
2023/02/18 06:23:15;;;;;;;13.75;10.73;;;11.40;99.90;;;;;;5074030;28;20054;-91
2023/02/18 06:25:41;;;;;;;13.30;10.98;;;11.40;99.90;;;;;;5074410;28;20020;-90
2023/02/18 06:28:07;;;;;;;12.50;10.73;;;11.40;99.90;;;;;;5074785;28;20024;-90
2023/02/18 06:30:33;;;;;;;12.80;10.93;;;11.50;99.90;;;;;;5074172;28;20024;-90
2023/02/18 06:32:59;;;;;;;11.90;10.60;;;11.50;99.90;;;;;;5073543;28;20032;-90
2023/02/18 06:35:24;;;;;;;12.52;10.38;;;11.50;99.90;;;;;;5073412;28;20029;-90
2023/02/18 06:37:50;;;;;;;13.52;10.27;;;11.50;99.90;;;;;;5073655;28;20033;-90
2023/02/18 06:40:17;;;;;;;14.45;10.73;;;11.50;99.90;;;;;;5073617;28;20049;-90
2023/02/18 06:42:43;;;;;;;12.25;10.65;;;11.40;99.90;;;;;;5073474;28;20491;-90
2023/02/18 06:45:09;;;;;;;13.43;10.95;;;11.50;99.90;;;;;;5073154;28;20066;-90
2023/02/18 06:47:34;;;;;;;13.02;10.55;;;11.50;99.90;;;;;;5072007;28;20036;-90
2023/02/18 06:50:00;;;;;;;13.32;11.05;;;11.40;99.90;;;;;;5073342;28;20024;-90
2023/02/18 06:52:25;;;;;;;13.68;11.25;;;11.40;99.90;;;;;;5072216;28;20029;-91
2023/02/18 06:54:51;;;;;;;12.68;10.63;;;11.40;99.90;;;;;;5073345;28;20063;-90
2023/02/18 06:57:17;;;;;;;13.50;10.77;;;11.30;99.90;;;;;;5072917;28;20025;-91
2023/02/18 06:59:43;;;;;;;15.68;10.45;;;11.30;99.90;;;;;;5073375;28;20032;-90
2023/02/18 07:02:12;;;;;;;13.18;10.13;;;11.20;99.90;;;;;;5073149;28;20375;-90
2023/02/18 07:04:37;;;;;;;13.68;10.45;;;11.20;99.90;;;;;;5073115;28;20048;-90
2023/02/18 07:07:03;;;;;;;12.95;10.20;;;11.10;99.90;;;;;;5072814;28;20480;-90
2023/02/18 07:09:29;;;;;;;14.75;10.93;;;11.30;99.90;;;;;;5073090;28;20028;-91
2023/02/18 07:11:54;;;;;;;15.20;11.18;;;11.20;99.90;;;;;;5072862;28;20052;-90
2023/02/18 07:14:20;;;;;;;13.75;11.13;;;11.30;99.90;;;;;;5071677;28;20388;-90
2023/02/18 07:16:45;;;;;;;13.95;10.68;;;11.30;99.90;;;;;;5073075;28;20385;-90
2023/02/18 07:19:11;;;;;;;13.13;10.40;;;11.40;99.90;;;;;;5072921;28;20573;-90
2023/02/18 07:21:37;;;;;;;13.10;10.65;;;11.40;99.90;;;;;;5073105;28;20020;-90
2023/02/18 07:24:03;;;;;;;13.82;11.18;;;11.40;99.90;;;;;;5072797;28;20477;-90
2023/02/18 07:26:28;;;;;;;13.43;10.43;;;11.40;99.90;;;;;;5072831;28;20481;-90
2023/02/18 07:28:54;;;;;;;14.77;11.27;;;11.40;99.90;;;;;;5071474;28;20028;-90
2023/02/18 07:31:19;;;;;;;14.27;11.43;;;11.50;99.90;;;;;;5073140;28;20032;-91
2023/02/18 07:33:45;;;;;;;16.40;11.57;;;11.50;99.90;;;;;;5071484;28;20053;-90
2023/02/18 07:36:11;;;;;;;17.25;11.90;;;11.50;99.90;;;;;;5071571;28;20051;-90
2023/02/18 07:38:36;;;;;;;13.10;10.98;;;11.60;99.90;;;;;;5072380;28;20017;-90
2023/02/18 07:41:02;;;;;;;16.02;11.52;;;11.80;99.90;;;;;;5073131;28;20052;-91
2023/02/18 07:43:28;;;;;;;15.93;11.85;;;11.80;99.90;;;;;;5071733;28;20025;-90
2023/02/18 07:45:53;;;;;;;14.18;11.65;;;11.90;99.90;;;;;;5072818;28;20025;-90
2023/02/18 07:48:19;;;;;;;14.38;11.95;;;11.90;99.90;;;;;;5071275;28;20021;-90
2023/02/18 07:50:45;;;;;;;14.45;11.35;;;11.90;99.90;;;;;;5072185;28;20024;-91
2023/02/18 07:53:13;;;;;;;19.08;12.05;;;11.90;99.90;;;;;;5072931;28;20032;-90
2023/02/18 07:55:51;;;;;;;19.02;12.05;;;11.90;99.90;;;;;;5071486;28;20111;-90
2023/02/18 07:58:23;;;;;;;16.55;13.00;;;11.90;99.90;;;;;;5072577;28;20362;-90
2023/02/18 08:00:50;;;;;;;13.93;11.88;;;12.10;99.90;;;;;;5072106;28;20048;-90
2023/02/18 08:03:17;;;;;;;17.85;12.85;;;12.20;99.90;;;;;;5076220;28;20032;-90
2023/02/18 08:05:43;;;;;;;19.25;12.80;;;12.20;99.90;;;;;;5076232;28;20043;-90
2023/02/18 08:08:13;;;;;;;16.75;14.98;;;12.20;99.90;;;;;;5076215;28;20032;-90
2023/02/18 08:10:39;;;;;;;19.27;13.07;;;12.20;99.90;;;;;;5075938;28;20089;-90
2023/02/18 08:13:04;;;;;;;15.80;12.27;;;12.00;99.90;;;;;;5076144;28;20513;-91
2023/02/18 08:15:30;;;;;;;15.20;12.05;;;12.20;99.90;;;;;;5075817;28;20033;-91
2023/02/18 08:17:55;;;;;;;14.18;11.95;;;12.20;99.90;;;;;;5076017;28;20029;-91
2023/02/18 08:20:21;;;;;;;13.18;11.43;;;12.20;99.90;;;;;;5076046;28;20031;-91
2023/02/18 08:22:47;;;;;;;14.38;10.68;;;12.30;99.90;;;;;;5074750;28;20028;-90
2023/02/18 08:25:12;;;;;;;15.32;11.13;;;12.40;99.90;;;;;;5074102;28;20024;-89
2023/02/18 08:27:38;;;;;;;17.38;11.10;;;12.30;99.90;;;;;;5075870;28;20071;-91
2023/02/18 08:30:04;;;;;;;14.23;11.20;;;12.40;99.90;;;;;;5074682;28;20052;-90
2023/02/18 08:32:30;;;;;;;16.27;11.35;;;12.50;99.90;;;;;;5074318;28;20037;-90
2023/02/18 08:34:55;;;;;;;20.40;12.65;;;12.60;99.90;;;;;;5074051;28;20033;-90
2023/02/18 08:37:22;;;;;;;15.13;11.18;;;12.60;99.90;;;;;;5075644;28;20049;-90
2023/02/18 08:39:48;;;;;;;24.13;12.20;;;12.60;99.90;;;;;;5075384;28;20032;-91
2023/02/18 08:42:14;;;;;;;22.00;12.55;;;12.50;99.90;;;;;;5075406;28;20048;-90
2023/02/18 08:44:40;;;;;;;21.40;13.10;;;12.50;99.90;;;;;;5075643;28;20020;-91
2023/02/18 08:47:06;;;;;;;18.05;13.30;;;12.50;99.90;;;;;;5074519;28;20408;-91
2023/02/18 08:49:31;;;;;;;19.55;13.38;;;12.40;99.90;;;;;;5075784;28;20570;-91
2023/02/18 08:51:57;;;;;;;18.67;13.18;;;12.50;99.90;;;;;;5076158;28;20082;-90
2023/02/18 08:54:23;;;;;;;27.02;14.25;;;12.50;99.90;;;;;;5075391;28;20085;-91
2023/02/18 08:56:48;;;;;;;24.42;14.00;;;12.60;99.90;;;;;;5075330;28;20384;-91
2023/02/18 08:59:14;;;;;;;18.70;12.88;;;12.70;99.90;;;;;;5074936;28;20033;-90
2023/02/18 09:01:39;;;;;;;19.08;12.98;;;12.90;99.90;;;;;;5074349;28;20396;-86
2023/02/18 09:04:05;;;;;;;17.92;12.75;;;13.10;99.90;;;;;;5079173;28;20078;-85
2023/02/18 09:06:31;;;;;;;16.67;13.40;;;13.30;99.90;;;;;;5087335;28;20032;-94
2023/02/18 09:08:57;;;;;;;16.00;13.32;;;13.40;99.90;;;;;;5074326;28;20485;-89
2023/02/18 09:11:22;;;;;;;21.92;14.40;;;13.50;99.90;;;;;;5074455;28;20024;-87
2023/02/18 09:13:48;;;;;;;18.83;14.65;;;13.50;99.90;;;;;;5072908;28;20028;-87
2023/02/18 09:16:17;;;;;;;17.15;13.43;;;13.60;99.90;;;;;;5074425;28;20043;-86
2023/02/18 09:18:43;;;;;;;16.10;13.60;;;13.70;99.90;;;;;;5074565;28;20020;-86
2023/02/18 09:21:12;;;;;;;19.60;14.20;;;13.70;99.90;;;;;;5074506;28;20060;-87
2023/02/18 09:23:38;;;;;;;18.33;15.38;;;13.70;99.90;;;;;;5073979;28;20073;-87
2023/02/18 09:26:05;;;;;;;17.40;14.77;;;13.70;99.90;;;;;;5074530;28;20104;-87
2023/02/18 09:28:31;;;;;;;16.80;14.38;;;13.50;99.90;;;;;;5074486;28;20025;-87
2023/02/18 09:30:59;;;;;;;21.67;14.65;;;13.60;99.90;;;;;;5074390;28;20162;-87
2023/02/18 09:33:24;;;;;;;22.05;17.00;;;13.80;99.90;;;;;;5074182;28;20500;-87
2023/02/18 09:35:50;;;;;;;23.70;17.08;;;13.80;99.90;;;;;;5072980;28;20040;-87
2023/02/18 09:38:17;;;;;;;23.00;17.23;;;13.90;99.90;;;;;;5072113;28;20029;-87
2023/02/18 09:40:46;;;;;;;23.35;17.27;;;14.00;99.90;;;;;;5074036;28;20045;-86
2023/02/18 09:43:41;;;;;;;21.25;17.90;;;14.20;99.90;;;;;;5072824;28;20481;-87
2023/02/18 09:46:21;;;;;;;23.35;18.42;;;14.10;99.90;;;;;;5074181;28;20023;-87
2023/02/18 09:48:47;;;;;;;24.75;18.27;;;14.10;99.90;;;;;;5074154;28;20032;-87
2023/02/18 09:51:15;;;;;;;24.15;18.55;;;14.10;99.90;;;;;;5074046;28;20024;-87
2023/02/18 09:53:45;;;;;;;23.95;19.17;;;14.00;99.90;;;;;;5073778;28;20074;-87
2023/02/18 09:56:17;;;;;;;23.55;19.02;;;14.10;99.90;;;;;;5073436;28;20045;-87
2023/02/18 09:58:45;;;;;;;23.02;18.77;;;14.20;99.90;;;;;;5073840;28;20508;-87
2023/02/18 10:01:39;;;;;;;22.23;18.52;;;14.30;99.90;;;;;;5073579;28;20155;-87
2023/02/18 10:04:22;;;;;;;19.85;17.70;;;14.30;99.90;;;;;;5072696;28;20477;-86
2023/02/18 10:06:50;;;;;;;22.15;18.50;;;14.30;99.90;;;;;;5073361;28;20048;-87
2023/02/18 10:09:24;;;;;;;24.63;18.23;;;14.40;99.90;;;;;;5073544;28;20092;-87
2023/02/18 10:11:55;;;;;;;20.23;18.02;;;14.40;99.90;;;;;;5073500;28;20089;-86
2023/02/18 10:14:20;;;;;;;22.25;18.88;;;14.40;99.90;;;;;;5073361;28;20564;-87
2023/02/18 10:16:49;;;;;;;22.30;18.10;;;14.40;99.90;;;;;;5073469;28;20034;-87
2023/02/18 10:19:23;;;;;;;20.15;18.05;;;14.50;99.90;;;;;;5073089;28;20103;-86
2023/02/18 10:21:50;;;;;;;20.38;18.20;;;14.50;99.90;;;;;;5072721;28;20028;-87
2023/02/18 10:24:29;;;;;;;18.02;15.55;;;14.60;99.90;;;;;;5072884;28;20095;-86
2023/02/18 10:26:56;;;;;;;16.23;14.40;;;14.70;99.90;;;;;;5073050;28;20477;-87
2023/02/18 10:29:23;;;;;;;17.25;15.27;;;14.70;99.90;;;;;;5073206;28;20043;-87
2023/02/18 10:31:55;;;;;;;18.35;15.82;;;14.90;99.90;;;;;;5073173;28;20020;-87
2023/02/18 10:34:42;;;;;;;22.98;16.75;;;14.80;99.90;;;;;;5073094;28;20020;-87
2023/02/18 10:37:13;;;;;;;16.35;14.27;;;14.80;99.90;;;;;;5072741;28;20528;-87
2023/02/18 10:40:00;;;;;;;17.15;15.35;;;14.80;99.90;;;;;;5073045;28;20031;-86
2023/02/18 10:42:33;;;;;;;19.55;14.30;;;14.90;99.90;;;;;;5071466;28;20165;-87
2023/02/18 10:45:19;;;;;;;17.08;15.27;;;14.80;99.90;;;;;;5072856;28;20028;-86
2023/02/18 10:47:51;;;;;;;18.67;15.15;;;14.80;99.90;;;;;;5071629;28;20028;-87
2023/02/18 10:50:34;;;;;;;17.30;15.25;;;14.80;99.90;;;;;;5072189;28;20024;-87
2023/02/18 10:53:07;;;;;;;20.05;16.25;;;15.00;99.90;;;;;;5072692;28;20374;-87
2023/02/18 10:55:42;;;;;;;18.88;15.20;;;15.00;99.90;;;;;;5071207;28;20043;-88
2023/02/18 10:58:35;;;;;;;15.93;14.00;;;15.10;99.90;;;;;;5072728;28;20021;-87
2023/02/18 11:01:12;;;;;;;17.48;14.55;;;15.20;99.90;;;;;;5069504;28;20107;-87
2023/02/18 11:03:39;;;;;;;17.67;15.30;;;15.10;99.90;;;;;;5072446;28;20036;-87
2023/02/18 11:06:30;;;;;;;16.40;14.02;;;15.30;99.90;;;;;;5072307;28;20529;-87
2023/02/18 11:08:57;;;;;;;15.95;13.88;;;15.40;99.90;;;;;;5071346;28;20100;-87
2023/02/18 11:11:38;;;;;;;14.38;12.82;;;15.50;99.90;;;;;;5071328;28;20021;-86
2023/02/18 11:14:07;;;;;;;14.75;13.20;;;15.70;99.90;;;;;;5072397;28;20075;-86
2023/02/18 11:16:42;;;;;;;14.20;12.68;;;15.80;99.90;;;;;;5072360;28;20500;-86
2023/02/18 11:19:37;;;;;;;15.18;13.55;;;15.70;99.90;;;;;;5072103;28;20111;-86
2023/02/18 11:22:15;;;;;;;13.65;12.18;;;15.60;99.90;;;;;;5069780;28;20085;-87
2023/02/18 11:24:46;;;;;;;16.85;12.43;;;15.70;99.90;;;;;;5072305;28;20508;-86
2023/02/18 11:27:27;;;;;;;14.15;12.45;;;15.90;99.90;;;;;;5072196;28;20028;-86
2023/02/18 11:30:24;;;;;;;14.93;12.20;;;16.10;99.90;;;;;;5072363;28;20025;-86
2023/02/18 11:32:54;;;;;;;12.95;11.57;;;16.00;99.90;;;;;;5061704;28;20094;-86
2023/02/18 11:35:23;;;;;;;13.20;11.52;;;16.10;99.90;;;;;;5072375;28;20078;-87
2023/02/18 11:37:50;;;;;;;13.27;11.88;;;16.20;99.90;;;;;;5075887;28;20024;-86
2023/02/18 11:40:31;;;;;;;12.45;11.10;;;16.30;99.90;;;;;;5076081;28;20035;-86
2023/02/18 11:43:13;;;;;;;12.40;10.98;;;16.20;99.90;;;;;;5076596;28;20029;-87
2023/02/18 11:45:39;;;;;;;12.68;11.38;;;16.30;99.90;;;;;;5075188;28;20024;-87
2023/02/18 11:48:14;;;;;;;13.30;10.27;;;16.60;99.90;;;;;;5076060;28;20453;-87
2023/02/18 11:50:40;;;;;;;10.65;9.55;;;16.70;99.90;;;;;;5076283;28;20044;-87
2023/02/18 11:53:32;;;;;;;12.05;7.95;;;17.10;99.90;;;;;;5076320;28;20025;-86
2023/02/18 11:56:04;;;;;;;7.82;6.72;;;18.00;99.90;;;;;;5071539;28;20043;-86
2023/02/18 11:58:40;;;;;;;7.72;6.32;;;18.10;99.90;;;;;;5075927;28;20025;-86
2023/02/18 12:01:32;;;;;;;7.18;5.82;;;18.10;99.90;;;;;;5075877;28;20025;-87
2023/02/18 12:04:15;;;;;;;7.97;6.30;;;18.50;99.90;;;;;;5075209;28;20028;-86
2023/02/18 12:06:50;;;;;;;5.65;4.63;;;17.90;99.90;;;;;;5076051;28;20081;-86
2023/02/18 12:09:33;;;;;;;7.60;4.40;;;17.90;99.90;;;;;;5075940;28;20444;-86
2023/02/18 12:12:17;;;;;;;5.40;4.20;;;18.10;99.90;;;;;;5075758;28;20021;-86
2023/02/18 12:14:43;;;;;;;4.95;3.55;;;17.80;99.90;;;;;;5074498;28;20150;-87
2023/02/18 12:17:26;;;;;;;4.10;3.33;;;17.90;99.90;;;;;;5075314;28;20047;-87
2023/02/18 12:20:20;;;;;;;2.47;2.28;;;17.70;99.90;;;;;;5075647;28;20037;-87
2023/02/18 12:22:56;;;;;;;3.30;2.88;;;17.00;99.90;;;;;;5073077;28;20508;-87
2023/02/18 12:25:25;;;;;;;4.93;2.70;;;17.00;99.90;;;;;;5075604;28;20024;-87
2023/02/18 12:28:21;;;;;;;2.78;2.15;;;17.20;99.90;;;;;;5074361;28;20032;-87
2023/02/18 12:31:24;;;;;;;3.88;3.20;;;17.20;99.90;;;;;;5075260;28;20021;-87
2023/02/18 12:34:05;;;;;;;3.78;2.75;;;17.20;99.90;;;;;;5075516;28;20102;-87
2023/02/18 12:37:16;;;;;;;3.97;3.08;;;17.20;99.90;;;;;;5075257;28;20044;-87
2023/02/18 12:39:42;;;;;;;3.22;2.92;;;17.10;99.90;;;;;;5075287;28;20020;-87
2023/02/18 12:42:27;;;;;;;2.97;2.53;;;16.90;99.90;;;;;;5075034;28;20079;-87
2023/02/18 12:45:02;;;;;;;5.43;2.70;;;16.80;99.90;;;;;;5073885;28;20025;-87
2023/02/18 12:48:06;;;;;;;3.05;2.55;;;16.80;99.90;;;;;;5074463;28;20036;-86